sensor_id;sensor_type;location;lat;lon;timestamp;P1;durP1;ratioP1;P2;durP2;ratioP2
22705;SDS011;11520;51.198;4.468;2023-04-29T00:00:37;47.42;;;25.92;;
22705;SDS011;11520;51.198;4.468;2023-04-29T00:03:03;52.63;;;26.50;;
22705;SDS011;11520;51.198;4.468;2023-04-29T00:05:28;52.70;;;27.40;;
22705;SDS011;11520;51.198;4.468;2023-04-29T00:07:54;47.08;;;27.08;;
22705;SDS011;11520;51.198;4.468;2023-04-29T00:10:19;49.15;;;26.63;;
22705;SDS011;11520;51.198;4.468;2023-04-29T00:12:45;48.53;;;25.85;;
22705;SDS011;11520;51.198;4.468;2023-04-29T00:15:10;52.30;;;26.73;;
22705;SDS011;11520;51.198;4.468;2023-04-29T00:17:36;43.95;;;25.23;;
22705;SDS011;11520;51.198;4.468;2023-04-29T00:20:02;47.78;;;24.98;;
22705;SDS011;11520;51.198;4.468;2023-04-29T00:22:28;48.45;;;24.42;;
22705;SDS011;11520;51.198;4.468;2023-04-29T00:24:54;42.20;;;23.17;;
22705;SDS011;11520;51.198;4.468;2023-04-29T00:27:20;40.85;;;24.08;;
22705;SDS011;11520;51.198;4.468;2023-04-29T00:29:45;48.58;;;26.75;;
22705;SDS011;11520;51.198;4.468;2023-04-29T00:32:12;49.10;;;28.95;;
22705;SDS011;11520;51.198;4.468;2023-04-29T00:34:37;53.00;;;30.02;;
22705;SDS011;11520;51.198;4.468;2023-04-29T00:37:03;46.90;;;27.50;;
22705;SDS011;11520;51.198;4.468;2023-04-29T00:39:28;55.83;;;30.33;;
22705;SDS011;11520;51.198;4.468;2023-04-29T00:41:54;44.03;;;27.05;;
22705;SDS011;11520;51.198;4.468;2023-04-29T00:44:21;43.83;;;26.65;;
22705;SDS011;11520;51.198;4.468;2023-04-29T00:46:47;48.20;;;26.88;;
22705;SDS011;11520;51.198;4.468;2023-04-29T00:49:12;49.75;;;28.95;;
22705;SDS011;11520;51.198;4.468;2023-04-29T00:51:38;50.67;;;27.42;;
22705;SDS011;11520;51.198;4.468;2023-04-29T00:54:05;41.95;;;25.17;;
22705;SDS011;11520;51.198;4.468;2023-04-29T00:56:33;40.20;;;25.02;;
22705;SDS011;11520;51.198;4.468;2023-04-29T00:59:00;44.35;;;25.55;;
22705;SDS011;11520;51.198;4.468;2023-04-29T01:01:28;44.42;;;24.52;;
22705;SDS011;11520;51.198;4.468;2023-04-29T01:03:55;36.40;;;22.80;;
22705;SDS011;11520;51.198;4.468;2023-04-29T01:06:40;38.25;;;22.70;;
22705;SDS011;11520;51.198;4.468;2023-04-29T01:14:33;32.40;;;20.42;;
22705;SDS011;11520;51.198;4.468;2023-04-29T01:17:05;35.45;;;21.98;;
22705;SDS011;11520;51.198;4.468;2023-04-29T01:19:42;33.67;;;21.50;;
22705;SDS011;11520;51.198;4.468;2023-04-29T01:22:11;34.90;;;21.38;;
22705;SDS011;11520;51.198;4.468;2023-04-29T01:24:38;37.30;;;23.45;;
22705;SDS011;11520;51.198;4.468;2023-04-29T01:27:23;39.33;;;23.00;;
22705;SDS011;11520;51.198;4.468;2023-04-29T01:35:29;33.30;;;20.83;;
22705;SDS011;11520;51.198;4.468;2023-04-29T01:41:03;33.03;;;20.90;;
22705;SDS011;11520;51.198;4.468;2023-04-29T01:43:39;40.72;;;21.63;;
22705;SDS011;11520;51.198;4.468;2023-04-29T01:46:06;36.13;;;20.08;;
22705;SDS011;11520;51.198;4.468;2023-04-29T01:48:33;31.98;;;20.58;;
22705;SDS011;11520;51.198;4.468;2023-04-29T01:51:00;34.47;;;21.60;;
22705;SDS011;11520;51.198;4.468;2023-04-29T01:53:26;33.50;;;21.40;;
22705;SDS011;11520;51.198;4.468;2023-04-29T01:55:51;30.23;;;19.70;;
22705;SDS011;11520;51.198;4.468;2023-04-29T01:58:17;34.78;;;20.42;;
22705;SDS011;11520;51.198;4.468;2023-04-29T02:00:43;31.63;;;18.92;;
22705;SDS011;11520;51.198;4.468;2023-04-29T02:03:08;31.73;;;18.30;;
22705;SDS011;11520;51.198;4.468;2023-04-29T02:05:34;32.10;;;18.02;;
22705;SDS011;11520;51.198;4.468;2023-04-29T02:08:00;34.45;;;19.10;;
22705;SDS011;11520;51.198;4.468;2023-04-29T02:10:26;31.30;;;18.42;;
22705;SDS011;11520;51.198;4.468;2023-04-29T02:12:52;33.63;;;17.80;;
22705;SDS011;11520;51.198;4.468;2023-04-29T02:15:18;30.63;;;17.52;;
22705;SDS011;11520;51.198;4.468;2023-04-29T02:17:44;33.75;;;20.50;;
22705;SDS011;11520;51.198;4.468;2023-04-29T02:20:11;45.70;;;23.58;;
22705;SDS011;11520;51.198;4.468;2023-04-29T02:22:36;51.75;;;26.63;;
22705;SDS011;11520;51.198;4.468;2023-04-29T02:25:03;51.55;;;28.38;;
22705;SDS011;11520;51.198;4.468;2023-04-29T02:27:30;52.33;;;29.90;;
22705;SDS011;11520;51.198;4.468;2023-04-29T02:29:56;49.55;;;29.75;;
22705;SDS011;11520;51.198;4.468;2023-04-29T02:32:21;54.03;;;30.50;;
22705;SDS011;11520;51.198;4.468;2023-04-29T02:34:47;59.78;;;31.20;;
22705;SDS011;11520;51.198;4.468;2023-04-29T02:37:13;52.30;;;30.27;;
22705;SDS011;11520;51.198;4.468;2023-04-29T02:39:39;57.58;;;31.00;;
22705;SDS011;11520;51.198;4.468;2023-04-29T02:42:05;51.47;;;29.50;;
22705;SDS011;11520;51.198;4.468;2023-04-29T02:44:31;62.65;;;33.50;;
22705;SDS011;11520;51.198;4.468;2023-04-29T02:46:57;55.78;;;30.25;;
22705;SDS011;11520;51.198;4.468;2023-04-29T02:49:23;51.75;;;29.95;;
22705;SDS011;11520;51.198;4.468;2023-04-29T02:51:48;57.30;;;31.17;;
22705;SDS011;11520;51.198;4.468;2023-04-29T02:54:15;50.67;;;28.95;;
22705;SDS011;11520;51.198;4.468;2023-04-29T02:56:41;54.40;;;29.73;;
22705;SDS011;11520;51.198;4.468;2023-04-29T02:59:07;50.17;;;27.83;;
22705;SDS011;11520;51.198;4.468;2023-04-29T03:01:33;47.72;;;28.35;;
22705;SDS011;11520;51.198;4.468;2023-04-29T03:03:59;50.70;;;28.58;;
22705;SDS011;11520;51.198;4.468;2023-04-29T03:06:25;52.13;;;28.38;;
22705;SDS011;11520;51.198;4.468;2023-04-29T03:08:51;53.65;;;28.38;;
22705;SDS011;11520;51.198;4.468;2023-04-29T03:11:17;51.20;;;27.48;;
22705;SDS011;11520;51.198;4.468;2023-04-29T03:13:44;49.83;;;26.58;;
22705;SDS011;11520;51.198;4.468;2023-04-29T03:16:10;51.92;;;28.08;;
22705;SDS011;11520;51.198;4.468;2023-04-29T03:18:38;55.00;;;28.77;;
22705;SDS011;11520;51.198;4.468;2023-04-29T03:21:04;48.10;;;26.70;;
22705;SDS011;11520;51.198;4.468;2023-04-29T03:23:30;50.95;;;27.30;;
22705;SDS011;11520;51.198;4.468;2023-04-29T03:25:56;55.03;;;27.35;;
22705;SDS011;11520;51.198;4.468;2023-04-29T03:28:21;50.00;;;27.08;;
22705;SDS011;11520;51.198;4.468;2023-04-29T03:30:47;52.92;;;28.58;;
22705;SDS011;11520;51.198;4.468;2023-04-29T03:33:13;58.33;;;29.10;;
22705;SDS011;11520;51.198;4.468;2023-04-29T03:35:39;53.33;;;27.77;;
22705;SDS011;11520;51.198;4.468;2023-04-29T03:38:04;53.90;;;27.50;;
22705;SDS011;11520;51.198;4.468;2023-04-29T03:40:30;50.17;;;26.95;;
22705;SDS011;11520;51.198;4.468;2023-04-29T03:42:55;51.15;;;28.23;;
22705;SDS011;11520;51.198;4.468;2023-04-29T03:45:21;48.05;;;26.60;;
22705;SDS011;11520;51.198;4.468;2023-04-29T03:47:47;43.13;;;26.88;;
22705;SDS011;11520;51.198;4.468;2023-04-29T03:50:13;47.00;;;27.98;;
22705;SDS011;11520;51.198;4.468;2023-04-29T03:52:38;48.25;;;27.55;;
22705;SDS011;11520;51.198;4.468;2023-04-29T03:55:04;45.22;;;26.33;;
22705;SDS011;11520;51.198;4.468;2023-04-29T03:57:30;46.30;;;26.08;;
22705;SDS011;11520;51.198;4.468;2023-04-29T03:59:55;51.20;;;27.95;;
22705;SDS011;11520;51.198;4.468;2023-04-29T04:02:21;47.25;;;25.75;;
22705;SDS011;11520;51.198;4.468;2023-04-29T04:04:47;42.65;;;26.80;;
22705;SDS011;11520;51.198;4.468;2023-04-29T04:07:13;45.95;;;26.17;;
22705;SDS011;11520;51.198;4.468;2023-04-29T04:09:38;52.28;;;27.50;;
22705;SDS011;11520;51.198;4.468;2023-04-29T04:12:05;53.83;;;28.35;;
22705;SDS011;11520;51.198;4.468;2023-04-29T04:14:31;44.20;;;25.88;;
22705;SDS011;11520;51.198;4.468;2023-04-29T04:16:56;44.75;;;26.20;;
22705;SDS011;11520;51.198;4.468;2023-04-29T04:19:22;44.15;;;24.65;;
22705;SDS011;11520;51.198;4.468;2023-04-29T04:21:48;41.60;;;25.50;;
22705;SDS011;11520;51.198;4.468;2023-04-29T04:24:13;38.90;;;25.45;;
22705;SDS011;11520;51.198;4.468;2023-04-29T04:26:39;42.60;;;24.08;;
22705;SDS011;11520;51.198;4.468;2023-04-29T04:29:06;43.13;;;24.25;;
22705;SDS011;11520;51.198;4.468;2023-04-29T04:31:31;41.78;;;24.23;;
22705;SDS011;11520;51.198;4.468;2023-04-29T04:33:58;40.90;;;23.77;;
22705;SDS011;11520;51.198;4.468;2023-04-29T04:36:24;41.38;;;24.38;;
22705;SDS011;11520;51.198;4.468;2023-04-29T04:38:49;39.53;;;24.08;;
22705;SDS011;11520;51.198;4.468;2023-04-29T04:41:15;43.22;;;24.27;;
22705;SDS011;11520;51.198;4.468;2023-04-29T04:43:41;37.83;;;23.05;;
22705;SDS011;11520;51.198;4.468;2023-04-29T04:46:11;38.33;;;22.25;;
22705;SDS011;11520;51.198;4.468;2023-04-29T04:48:37;45.33;;;22.17;;
22705;SDS011;11520;51.198;4.468;2023-04-29T04:51:06;37.88;;;22.73;;
22705;SDS011;11520;51.198;4.468;2023-04-29T04:53:36;39.45;;;22.98;;
22705;SDS011;11520;51.198;4.468;2023-04-29T04:56:03;36.17;;;21.98;;
22705;SDS011;11520;51.198;4.468;2023-04-29T04:58:30;36.20;;;23.15;;
22705;SDS011;11520;51.198;4.468;2023-04-29T05:00:56;41.25;;;23.33;;
22705;SDS011;11520;51.198;4.468;2023-04-29T05:03:22;37.17;;;23.00;;
22705;SDS011;11520;51.198;4.468;2023-04-29T05:05:57;36.40;;;23.23;;
22705;SDS011;11520;51.198;4.468;2023-04-29T05:08:24;38.70;;;23.98;;
22705;SDS011;11520;51.198;4.468;2023-04-29T05:10:50;43.08;;;26.48;;
22705;SDS011;11520;51.198;4.468;2023-04-29T05:13:16;44.60;;;25.83;;
22705;SDS011;11520;51.198;4.468;2023-04-29T05:15:42;43.88;;;25.17;;
22705;SDS011;11520;51.198;4.468;2023-04-29T05:18:09;47.65;;;26.48;;
22705;SDS011;11520;51.198;4.468;2023-04-29T05:20:35;40.83;;;26.50;;
22705;SDS011;11520;51.198;4.468;2023-04-29T05:23:01;41.70;;;25.80;;
22705;SDS011;11520;51.198;4.468;2023-04-29T05:25:27;38.13;;;24.75;;
22705;SDS011;11520;51.198;4.468;2023-04-29T05:27:53;38.70;;;25.15;;
22705;SDS011;11520;51.198;4.468;2023-04-29T05:30:19;42.38;;;24.70;;
22705;SDS011;11520;51.198;4.468;2023-04-29T05:32:45;45.08;;;27.02;;
22705;SDS011;11520;51.198;4.468;2023-04-29T05:35:11;42.42;;;27.08;;
22705;SDS011;11520;51.198;4.468;2023-04-29T05:37:36;45.72;;;26.77;;
22705;SDS011;11520;51.198;4.468;2023-04-29T05:40:02;43.78;;;26.58;;
22705;SDS011;11520;51.198;4.468;2023-04-29T05:42:28;42.00;;;25.70;;
22705;SDS011;11520;51.198;4.468;2023-04-29T05:44:54;35.40;;;25.27;;
22705;SDS011;11520;51.198;4.468;2023-04-29T05:47:21;37.33;;;25.10;;
22705;SDS011;11520;51.198;4.468;2023-04-29T05:49:47;41.17;;;26.48;;
22705;SDS011;11520;51.198;4.468;2023-04-29T05:52:13;40.40;;;24.85;;
22705;SDS011;11520;51.198;4.468;2023-04-29T05:54:39;41.75;;;27.10;;
22705;SDS011;11520;51.198;4.468;2023-04-29T05:57:05;44.70;;;26.17;;
22705;SDS011;11520;51.198;4.468;2023-04-29T05:59:31;38.65;;;25.80;;
22705;SDS011;11520;51.198;4.468;2023-04-29T06:02:00;42.95;;;28.00;;
22705;SDS011;11520;51.198;4.468;2023-04-29T06:04:26;41.70;;;27.75;;
22705;SDS011;11520;51.198;4.468;2023-04-29T06:06:52;36.33;;;23.38;;
22705;SDS011;11520;51.198;4.468;2023-04-29T06:09:20;38.00;;;25.30;;
22705;SDS011;11520;51.198;4.468;2023-04-29T06:11:46;42.72;;;26.80;;
22705;SDS011;11520;51.198;4.468;2023-04-29T06:14:12;42.42;;;29.08;;
22705;SDS011;11520;51.198;4.468;2023-04-29T06:16:38;46.60;;;27.23;;
22705;SDS011;11520;51.198;4.468;2023-04-29T06:19:04;37.67;;;25.45;;
22705;SDS011;11520;51.198;4.468;2023-04-29T06:21:30;42.13;;;27.08;;
22705;SDS011;11520;51.198;4.468;2023-04-29T06:23:57;43.15;;;27.45;;
22705;SDS011;11520;51.198;4.468;2023-04-29T06:26:23;43.50;;;27.92;;
22705;SDS011;11520;51.198;4.468;2023-04-29T06:28:49;36.40;;;24.33;;
22705;SDS011;11520;51.198;4.468;2023-04-29T06:31:16;44.00;;;26.00;;
22705;SDS011;11520;51.198;4.468;2023-04-29T06:33:42;35.65;;;23.38;;
22705;SDS011;11520;51.198;4.468;2023-04-29T06:36:07;34.70;;;23.15;;
22705;SDS011;11520;51.198;4.468;2023-04-29T06:38:33;32.95;;;22.27;;
22705;SDS011;11520;51.198;4.468;2023-04-29T06:40:59;34.10;;;22.05;;
22705;SDS011;11520;51.198;4.468;2023-04-29T06:43:28;33.58;;;21.45;;
22705;SDS011;11520;51.198;4.468;2023-04-29T06:45:54;31.17;;;19.50;;
22705;SDS011;11520;51.198;4.468;2023-04-29T06:48:21;30.75;;;19.60;;
22705;SDS011;11520;51.198;4.468;2023-04-29T06:50:51;27.77;;;18.67;;
22705;SDS011;11520;51.198;4.468;2023-04-29T06:53:17;25.77;;;17.52;;
22705;SDS011;11520;51.198;4.468;2023-04-29T06:55:43;31.70;;;20.02;;
22705;SDS011;11520;51.198;4.468;2023-04-29T06:58:10;29.70;;;19.60;;
22705;SDS011;11520;51.198;4.468;2023-04-29T07:00:37;31.65;;;19.17;;
22705;SDS011;11520;51.198;4.468;2023-04-29T07:03:03;30.48;;;18.30;;
22705;SDS011;11520;51.198;4.468;2023-04-29T07:05:28;29.85;;;18.15;;
22705;SDS011;11520;51.198;4.468;2023-04-29T07:07:54;29.65;;;17.92;;
22705;SDS011;11520;51.198;4.468;2023-04-29T07:10:20;31.52;;;18.88;;
22705;SDS011;11520;51.198;4.468;2023-04-29T07:12:45;27.50;;;18.05;;
22705;SDS011;11520;51.198;4.468;2023-04-29T07:15:11;32.88;;;18.17;;
22705;SDS011;11520;51.198;4.468;2023-04-29T07:17:36;32.03;;;19.45;;
22705;SDS011;11520;51.198;4.468;2023-04-29T07:20:02;33.72;;;19.02;;
22705;SDS011;11520;51.198;4.468;2023-04-29T07:22:29;31.50;;;18.75;;
22705;SDS011;11520;51.198;4.468;2023-04-29T07:24:55;29.35;;;18.95;;
22705;SDS011;11520;51.198;4.468;2023-04-29T07:27:21;32.00;;;18.20;;
22705;SDS011;11520;51.198;4.468;2023-04-29T07:29:47;26.90;;;17.30;;
22705;SDS011;11520;51.198;4.468;2023-04-29T07:32:13;29.77;;;18.13;;
22705;SDS011;11520;51.198;4.468;2023-04-29T07:34:39;31.15;;;17.92;;
22705;SDS011;11520;51.198;4.468;2023-04-29T07:37:05;29.13;;;17.38;;
22705;SDS011;11520;51.198;4.468;2023-04-29T07:39:30;29.48;;;18.13;;
22705;SDS011;11520;51.198;4.468;2023-04-29T07:41:56;33.97;;;18.92;;
22705;SDS011;11520;51.198;4.468;2023-04-29T07:44:25;28.58;;;17.80;;
22705;SDS011;11520;51.198;4.468;2023-04-29T07:46:50;28.67;;;16.13;;
22705;SDS011;11520;51.198;4.468;2023-04-29T07:49:16;25.40;;;16.42;;
22705;SDS011;11520;51.198;4.468;2023-04-29T07:51:41;28.40;;;16.20;;
22705;SDS011;11520;51.198;4.468;2023-04-29T07:54:08;25.45;;;17.48;;
22705;SDS011;11520;51.198;4.468;2023-04-29T07:56:33;27.63;;;16.05;;
22705;SDS011;11520;51.198;4.468;2023-04-29T07:58:59;28.33;;;15.93;;
22705;SDS011;11520;51.198;4.468;2023-04-29T08:01:25;27.10;;;16.08;;
22705;SDS011;11520;51.198;4.468;2023-04-29T08:03:52;24.63;;;15.85;;
22705;SDS011;11520;51.198;4.468;2023-04-29T08:06:18;23.85;;;15.07;;
22705;SDS011;11520;51.198;4.468;2023-04-29T08:08:46;24.30;;;14.77;;
22705;SDS011;11520;51.198;4.468;2023-04-29T08:11:18;26.58;;;15.60;;
22705;SDS011;11520;51.198;4.468;2023-04-29T08:13:45;24.75;;;15.57;;
22705;SDS011;11520;51.198;4.468;2023-04-29T08:16:11;37.72;;;18.98;;
22705;SDS011;11520;51.198;4.468;2023-04-29T08:18:38;24.02;;;15.43;;
22705;SDS011;11520;51.198;4.468;2023-04-29T08:21:04;23.58;;;14.90;;
22705;SDS011;11520;51.198;4.468;2023-04-29T08:23:30;26.00;;;14.35;;
22705;SDS011;11520;51.198;4.468;2023-04-29T08:25:56;22.17;;;13.70;;
22705;SDS011;11520;51.198;4.468;2023-04-29T08:28:22;22.42;;;14.30;;
22705;SDS011;11520;51.198;4.468;2023-04-29T08:30:47;27.05;;;14.10;;
22705;SDS011;11520;51.198;4.468;2023-04-29T08:33:13;23.02;;;13.75;;
22705;SDS011;11520;51.198;4.468;2023-04-29T08:35:39;24.88;;;14.75;;
22705;SDS011;11520;51.198;4.468;2023-04-29T08:38:06;25.23;;;13.63;;
22705;SDS011;11520;51.198;4.468;2023-04-29T08:40:40;19.35;;;12.88;;
22705;SDS011;11520;51.198;4.468;2023-04-29T08:43:08;18.92;;;12.30;;
22705;SDS011;11520;51.198;4.468;2023-04-29T08:45:34;22.95;;;14.23;;
22705;SDS011;11520;51.198;4.468;2023-04-29T08:48:03;23.83;;;13.85;;
22705;SDS011;11520;51.198;4.468;2023-04-29T08:50:39;20.83;;;12.38;;
22705;SDS011;11520;51.198;4.468;2023-04-29T08:53:06;22.80;;;12.98;;
22705;SDS011;11520;51.198;4.468;2023-04-29T08:55:38;23.13;;;13.07;;
22705;SDS011;11520;51.198;4.468;2023-04-29T08:58:06;18.08;;;10.93;;
22705;SDS011;11520;51.198;4.468;2023-04-29T09:00:33;18.25;;;11.65;;
22705;SDS011;11520;51.198;4.468;2023-04-29T09:03:00;21.38;;;12.48;;
22705;SDS011;11520;51.198;4.468;2023-04-29T09:05:35;20.40;;;11.85;;
22705;SDS011;11520;51.198;4.468;2023-04-29T09:08:03;17.15;;;11.18;;
22705;SDS011;11520;51.198;4.468;2023-04-29T09:10:29;14.95;;;9.68;;
22705;SDS011;11520;51.198;4.468;2023-04-29T09:12:56;15.30;;;9.77;;
22705;SDS011;11520;51.198;4.468;2023-04-29T09:15:25;14.55;;;9.00;;
22705;SDS011;11520;51.198;4.468;2023-04-29T09:17:51;14.55;;;8.88;;
22705;SDS011;11520;51.198;4.468;2023-04-29T09:22:49;11.65;;;8.68;;
22705;SDS011;11520;51.198;4.468;2023-04-29T09:25:17;13.30;;;9.75;;
22705;SDS011;11520;51.198;4.468;2023-04-29T09:27:43;13.82;;;9.88;;
22705;SDS011;11520;51.198;4.468;2023-04-29T09:30:09;12.93;;;9.38;;
22705;SDS011;11520;51.198;4.468;2023-04-29T09:32:36;15.45;;;10.10;;
22705;SDS011;11520;51.198;4.468;2023-04-29T09:35:24;15.15;;;8.07;;
22705;SDS011;11520;51.198;4.468;2023-04-29T09:38:10;17.55;;;10.57;;
22705;SDS011;11520;51.198;4.468;2023-04-29T09:40:37;12.65;;;9.35;;
22705;SDS011;11520;51.198;4.468;2023-04-29T09:43:10;16.40;;;8.80;;
22705;SDS011;11520;51.198;4.468;2023-04-29T09:45:42;12.05;;;7.78;;
22705;SDS011;11520;51.198;4.468;2023-04-29T09:48:09;12.07;;;8.18;;
22705;SDS011;11520;51.198;4.468;2023-04-29T09:50:40;14.82;;;8.15;;
22705;SDS011;11520;51.198;4.468;2023-04-29T09:53:07;11.30;;;9.10;;
22705;SDS011;11520;51.198;4.468;2023-04-29T09:55:34;14.82;;;8.88;;
22705;SDS011;11520;51.198;4.468;2023-04-29T09:58:00;16.92;;;11.32;;
22705;SDS011;11520;51.198;4.468;2023-04-29T10:00:30;15.32;;;9.95;;
22705;SDS011;11520;51.198;4.468;2023-04-29T10:02:58;13.18;;;8.88;;
22705;SDS011;11520;51.198;4.468;2023-04-29T10:05:26;8.70;;;7.43;;
22705;SDS011;11520;51.198;4.468;2023-04-29T10:07:54;9.80;;;6.78;;
22705;SDS011;11520;51.198;4.468;2023-04-29T10:10:21;11.65;;;8.02;;
22705;SDS011;11520;51.198;4.468;2023-04-29T10:12:48;12.40;;;9.25;;
22705;SDS011;11520;51.198;4.468;2023-04-29T10:15:19;14.45;;;8.52;;
22705;SDS011;11520;51.198;4.468;2023-04-29T10:18:04;14.95;;;7.50;;
22705;SDS011;11520;51.198;4.468;2023-04-29T10:20:45;10.57;;;7.50;;
22705;SDS011;11520;51.198;4.468;2023-04-29T10:23:12;12.43;;;8.13;;
22705;SDS011;11520;51.198;4.468;2023-04-29T10:25:39;16.45;;;8.15;;
22705;SDS011;11520;51.198;4.468;2023-04-29T10:28:11;11.07;;;8.13;;
22705;SDS011;11520;51.198;4.468;2023-04-29T10:30:38;11.30;;;7.50;;
22705;SDS011;11520;51.198;4.468;2023-04-29T10:33:06;12.45;;;7.95;;
22705;SDS011;11520;51.198;4.468;2023-04-29T10:35:35;11.73;;;7.60;;
22705;SDS011;11520;51.198;4.468;2023-04-29T10:38:03;15.25;;;7.82;;
22705;SDS011;11520;51.198;4.468;2023-04-29T10:40:35;11.82;;;8.20;;
22705;SDS011;11520;51.198;4.468;2023-04-29T10:43:12;11.40;;;7.70;;
22705;SDS011;11520;51.198;4.468;2023-04-29T10:45:38;14.68;;;8.23;;
22705;SDS011;11520;51.198;4.468;2023-04-29T10:48:08;12.75;;;8.27;;
22705;SDS011;11520;51.198;4.468;2023-04-29T10:53:12;10.50;;;7.72;;
22705;SDS011;11520;51.198;4.468;2023-04-29T10:55:45;12.02;;;8.00;;
22705;SDS011;11520;51.198;4.468;2023-04-29T10:58:58;11.50;;;7.63;;
22705;SDS011;11520;51.198;4.468;2023-04-29T11:00:59;11.43;;;7.43;;
22705;SDS011;11520;51.198;4.468;2023-04-29T11:06:10;13.57;;;7.50;;
22705;SDS011;11520;51.198;4.468;2023-04-29T11:08:38;11.55;;;6.88;;
22705;SDS011;11520;51.198;4.468;2023-04-29T11:11:05;10.23;;;7.05;;
22705;SDS011;11520;51.198;4.468;2023-04-29T11:13:37;9.00;;;7.28;;
22705;SDS011;11520;51.198;4.468;2023-04-29T11:16:07;12.05;;;8.80;;
22705;SDS011;11520;51.198;4.468;2023-04-29T11:18:36;11.80;;;7.47;;
22705;SDS011;11520;51.198;4.468;2023-04-29T11:21:36;13.20;;;7.38;;
22705;SDS011;11520;51.198;4.468;2023-04-29T11:24:09;9.25;;;7.32;;
22705;SDS011;11520;51.198;4.468;2023-04-29T11:26:36;9.07;;;7.25;;
22705;SDS011;11520;51.198;4.468;2023-04-29T11:29:03;8.75;;;6.70;;
22705;SDS011;11520;51.198;4.468;2023-04-29T11:31:30;11.88;;;7.00;;
22705;SDS011;11520;51.198;4.468;2023-04-29T11:33:57;21.25;;;7.20;;
22705;SDS011;11520;51.198;4.468;2023-04-29T11:36:24;13.63;;;7.05;;
22705;SDS011;11520;51.198;4.468;2023-04-29T11:38:49;8.65;;;6.63;;
22705;SDS011;11520;51.198;4.468;2023-04-29T11:41:15;10.23;;;6.43;;
22705;SDS011;11520;51.198;4.468;2023-04-29T11:43:41;12.88;;;7.25;;
22705;SDS011;11520;51.198;4.468;2023-04-29T11:46:14;8.75;;;7.15;;
22705;SDS011;11520;51.198;4.468;2023-04-29T11:48:47;10.48;;;7.35;;
22705;SDS011;11520;51.198;4.468;2023-04-29T11:51:15;15.45;;;7.03;;
22705;SDS011;11520;51.198;4.468;2023-04-29T11:53:42;9.68;;;7.15;;
22705;SDS011;11520;51.198;4.468;2023-04-29T11:56:09;13.80;;;7.28;;
22705;SDS011;11520;51.198;4.468;2023-04-29T11:58:35;13.40;;;7.68;;
22705;SDS011;11520;51.198;4.468;2023-04-29T12:01:02;9.75;;;6.78;;
22705;SDS011;11520;51.198;4.468;2023-04-29T12:03:31;14.57;;;7.97;;
22705;SDS011;11520;51.198;4.468;2023-04-29T12:05:58;22.08;;;7.97;;
22705;SDS011;11520;51.198;4.468;2023-04-29T12:08:25;10.48;;;6.60;;
22705;SDS011;11520;51.198;4.468;2023-04-29T12:10:54;11.98;;;6.60;;
22705;SDS011;11520;51.198;4.468;2023-04-29T12:13:28;11.18;;;7.20;;
22705;SDS011;11520;51.198;4.468;2023-04-29T12:15:54;11.45;;;6.90;;
22705;SDS011;11520;51.198;4.468;2023-04-29T12:18:21;11.77;;;7.57;;
22705;SDS011;11520;51.198;4.468;2023-04-29T12:20:47;9.80;;;6.78;;
22705;SDS011;11520;51.198;4.468;2023-04-29T12:23:22;10.90;;;6.80;;
22705;SDS011;11520;51.198;4.468;2023-04-29T12:25:49;9.05;;;6.85;;
22705;SDS011;11520;51.198;4.468;2023-04-29T12:28:19;12.40;;;7.40;;
22705;SDS011;11520;51.198;4.468;2023-04-29T12:30:49;12.63;;;7.22;;
22705;SDS011;11520;51.198;4.468;2023-04-29T12:33:18;11.00;;;6.85;;
22705;SDS011;11520;51.198;4.468;2023-04-29T12:35:46;11.68;;;6.72;;
22705;SDS011;11520;51.198;4.468;2023-04-29T12:38:20;11.50;;;6.32;;
22705;SDS011;11520;51.198;4.468;2023-04-29T12:40:52;7.22;;;6.50;;
22705;SDS011;11520;51.198;4.468;2023-04-29T12:43:19;7.60;;;5.78;;
22705;SDS011;11520;51.198;4.468;2023-04-29T12:45:54;8.68;;;5.90;;
22705;SDS011;11520;51.198;4.468;2023-04-29T12:48:33;9.40;;;5.40;;
22705;SDS011;11520;51.198;4.468;2023-04-29T12:51:02;7.20;;;5.45;;
22705;SDS011;11520;51.198;4.468;2023-04-29T12:53:29;8.05;;;5.40;;
22705;SDS011;11520;51.198;4.468;2023-04-29T12:55:55;11.15;;;5.82;;
22705;SDS011;11520;51.198;4.468;2023-04-29T12:58:21;8.90;;;5.93;;
22705;SDS011;11520;51.198;4.468;2023-04-29T13:00:47;7.57;;;5.78;;
22705;SDS011;11520;51.198;4.468;2023-04-29T13:03:13;10.45;;;5.95;;
22705;SDS011;11520;51.198;4.468;2023-04-29T13:05:39;6.40;;;5.20;;
22705;SDS011;11520;51.198;4.468;2023-04-29T13:08:05;7.78;;;5.35;;
22705;SDS011;11520;51.198;4.468;2023-04-29T13:10:31;10.07;;;5.72;;
22705;SDS011;11520;51.198;4.468;2023-04-29T13:12:57;11.80;;;5.78;;
22705;SDS011;11520;51.198;4.468;2023-04-29T13:15:24;6.97;;;5.15;;
22705;SDS011;11520;51.198;4.468;2023-04-29T13:17:50;9.73;;;6.18;;
22705;SDS011;11520;51.198;4.468;2023-04-29T13:20:16;10.35;;;6.65;;
22705;SDS011;11520;51.198;4.468;2023-04-29T13:22:42;8.55;;;6.10;;
22705;SDS011;11520;51.198;4.468;2023-04-29T13:25:08;11.20;;;6.25;;
22705;SDS011;11520;51.198;4.468;2023-04-29T13:27:35;8.93;;;6.32;;
22705;SDS011;11520;51.198;4.468;2023-04-29T13:30:02;9.65;;;6.68;;
22705;SDS011;11520;51.198;4.468;2023-04-29T13:32:28;9.20;;;7.38;;
22705;SDS011;11520;51.198;4.468;2023-04-29T13:34:53;9.55;;;6.22;;
22705;SDS011;11520;51.198;4.468;2023-04-29T13:37:20;12.32;;;7.10;;
22705;SDS011;11520;51.198;4.468;2023-04-29T13:39:46;9.77;;;6.85;;
22705;SDS011;11520;51.198;4.468;2023-04-29T13:42:11;8.35;;;6.07;;
22705;SDS011;11520;51.198;4.468;2023-04-29T13:44:37;9.57;;;5.90;;
22705;SDS011;11520;51.198;4.468;2023-04-29T13:47:07;10.68;;;5.90;;
22705;SDS011;11520;51.198;4.468;2023-04-29T13:49:37;8.98;;;6.35;;
22705;SDS011;11520;51.198;4.468;2023-04-29T13:52:08;9.07;;;6.22;;
22705;SDS011;11520;51.198;4.468;2023-04-29T13:54:34;9.82;;;5.72;;
22705;SDS011;11520;51.198;4.468;2023-04-29T13:57:00;10.65;;;5.55;;
22705;SDS011;11520;51.198;4.468;2023-04-29T13:59:30;19.17;;;5.63;;
22705;SDS011;11520;51.198;4.468;2023-04-29T14:01:56;9.35;;;4.80;;
22705;SDS011;11520;51.198;4.468;2023-04-29T14:04:22;8.77;;;5.35;;
22705;SDS011;11520;51.198;4.468;2023-04-29T14:06:52;7.97;;;5.75;;
22705;SDS011;11520;51.198;4.468;2023-04-29T14:09:18;7.68;;;5.00;;
22705;SDS011;11520;51.198;4.468;2023-04-29T14:11:45;10.25;;;5.05;;
22705;SDS011;11520;51.198;4.468;2023-04-29T14:14:11;12.27;;;5.07;;
22705;SDS011;11520;51.198;4.468;2023-04-29T14:16:38;9.82;;;5.25;;
22705;SDS011;11520;51.198;4.468;2023-04-29T14:19:04;9.38;;;5.25;;
22705;SDS011;11520;51.198;4.468;2023-04-29T14:21:31;13.93;;;5.10;;
22705;SDS011;11520;51.198;4.468;2023-04-29T14:23:57;11.48;;;4.93;;
22705;SDS011;11520;51.198;4.468;2023-04-29T14:26:24;11.65;;;5.75;;
22705;SDS011;11520;51.198;4.468;2023-04-29T14:28:51;12.10;;;5.85;;
22705;SDS011;11520;51.198;4.468;2023-04-29T14:31:21;12.52;;;5.32;;
22705;SDS011;11520;51.198;4.468;2023-04-29T14:33:54;8.13;;;4.90;;
22705;SDS011;11520;51.198;4.468;2023-04-29T14:36:23;7.80;;;5.28;;
22705;SDS011;11520;51.198;4.468;2023-04-29T14:38:50;8.43;;;5.80;;
22705;SDS011;11520;51.198;4.468;2023-04-29T14:41:16;7.22;;;4.75;;
22705;SDS011;11520;51.198;4.468;2023-04-29T14:43:42;6.68;;;4.90;;
22705;SDS011;11520;51.198;4.468;2023-04-29T14:46:09;7.22;;;4.40;;
22705;SDS011;11520;51.198;4.468;2023-04-29T14:48:34;6.30;;;4.38;;
22705;SDS011;11520;51.198;4.468;2023-04-29T14:51:00;7.32;;;4.60;;